Time;durP1;ratioP1;P1;durP2;ratioP2;P2;SDS_P1;SDS_P2;PMS_P1;PMS_P2;Temp;Humidity;BMP_temperature;BMP_pressure;BME280_temperature;BME280_humidity;BME280_pressure;Samples;Min_cycle;Max_cycle;Signal;HPM_P1;HPM_P2
2023/08/24 00:00:45;;;;;;;5.28;3.20;;;;;;;23.65;64.32;101490.75;5029476;27;97112;-67
2023/08/24 00:03:12;;;;;;;8.27;3.03;;;;;;;23.94;63.48;101500.09;5030403;27;100743;-66
2023/08/24 00:05:39;;;;;;;3.05;2.35;;;;;;;23.94;63.39;101497.41;5031372;27;98963;-66
2023/08/24 00:08:08;;;;;;;6.55;3.35;;;;;;;23.74;64.72;101488.19;5026618;27;96965;-66
2023/08/24 00:10:35;;;;;;;10.20;3.00;;;;;;;23.74;64.53;101493.59;5031871;27;96751;-66
2023/08/24 00:13:02;;;;;;;4.80;3.10;;;;;;;23.67;64.88;101491.50;5029389;27;99142;-65
2023/08/24 00:15:30;;;;;;;4.90;3.05;;;;;;;23.70;64.88;101491.22;5031748;27;97652;-66
2023/08/24 00:17:56;;;;;;;3.70;2.85;;;;;;;23.64;65.41;101489.88;5029607;27;96909;-64
2023/08/24 00:20:23;;;;;;;4.82;2.92;;;;;;;23.37;65.88;101495.53;5030145;27;96892;-66
2023/08/24 00:22:53;;;;;;;3.90;2.80;;;;;;;23.53;65.49;101500.66;5028374;27;99368;-66
2023/08/24 00:25:19;;;;;;;7.13;3.28;;;;;;;23.54;65.46;101491.59;5028826;27;98536;-65
2023/08/24 00:27:46;;;;;;;5.22;2.88;;;;;;;23.48;65.12;101477.72;5031582;27;97161;-66
2023/08/24 00:30:12;;;;;;;4.07;3.13;;;;;;;23.56;64.97;101488.78;5026288;27;100629;-66
2023/08/24 00:32:40;;;;;;;10.02;3.28;;;;;;;23.45;65.51;101481.47;5028778;27;99137;-65
2023/08/24 00:35:10;;;;;;;7.28;2.72;;;;;;;23.56;64.76;101480.69;5029112;27;97948;-66
2023/08/24 00:37:36;;;;;;;8.35;3.10;;;;;;;23.33;65.73;101479.72;5027569;27;99421;-65
2023/08/24 00:40:07;;;;;;;8.23;3.22;;;;;;;23.54;65.24;101485.34;5026838;27;96887;-65
2023/08/24 00:42:34;;;;;;;4.47;3.00;;;;;;;23.62;64.87;101488.31;5025601;27;101682;-66
2023/08/24 00:45:00;;;;;;;6.07;3.20;;;;;;;23.56;65.17;101480.69;5025300;27;98973;-65
2023/08/24 00:47:27;;;;;;;5.30;3.20;;;;;;;23.44;65.13;101486.00;5025582;27;97101;-66
2023/08/24 00:49:55;;;;;;;3.58;2.92;;;;;;;23.54;65.05;101479.94;5024925;27;96838;-65
2023/08/24 00:52:21;;;;;;;4.07;2.97;;;;;;;23.49;64.86;101480.31;5026120;27;101193;-66
2023/08/24 00:54:48;;;;;;;7.78;3.13;;;;;;;23.41;65.19;101475.47;5024510;27;99271;-65
2023/08/24 00:57:14;;;;;;;8.40;3.63;;;;;;;23.40;65.36;101473.75;5027172;27;100260;-65
2023/08/24 00:59:41;;;;;;;7.43;3.60;;;;;;;23.21;65.89;101476.16;5029169;27;98589;-66
2023/08/24 01:02:08;;;;;;;4.50;3.20;;;;;;;23.35;65.08;101469.69;5028183;27;98059;-65
2023/08/24 01:04:34;;;;;;;8.07;3.53;;;;;;;23.29;65.61;101473.72;5028988;27;99179;-66
2023/08/24 01:07:02;;;;;;;5.43;3.35;;;;;;;23.26;66.00;101476.66;5026791;27;96862;-65
2023/08/24 01:09:29;;;;;;;7.28;3.67;;;;;;;23.17;67.44;101471.13;5024171;27;96781;-67
2023/08/24 01:12:03;;;;;;;6.18;3.53;;;;;;;23.27;66.80;101470.28;5025201;27;99194;-65
2023/08/24 01:14:41;;;;;;;7.70;3.38;;;;;;;23.24;67.00;101475.91;5025206;27;100515;-66
2023/08/24 01:17:12;;;;;;;10.52;3.58;;;;;;;23.30;66.82;101472.72;5026422;27;96751;-66
2023/08/24 01:19:41;;;;;;;9.15;3.17;;;;;;;23.31;67.03;101470.88;5027014;27;100634;-67
2023/08/24 01:22:24;;;;;;;4.50;3.33;;;;;;;23.27;67.41;101472.97;5026288;27;98210;-65
2023/08/24 01:24:59;;;;;;;8.02;3.42;;;;;;;23.36;67.07;101471.41;5025966;27;99231;-66
2023/08/24 01:27:28;;;;;;;7.47;3.53;;;;;;;23.20;67.58;101471.72;5025536;27;96844;-66
2023/08/24 01:29:56;;;;;;;7.45;3.50;;;;;;;23.37;66.55;101482.06;5021919;27;97053;-66
2023/08/24 01:32:23;;;;;;;7.32;3.28;;;;;;;23.29;66.83;101471.03;5028644;27;99227;-67
2023/08/24 01:34:49;;;;;;;4.63;3.80;;;;;;;23.38;66.68;101472.13;5026028;27;100573;-65
2023/08/24 01:37:16;;;;;;;4.05;3.08;;;;;;;23.37;66.17;101471.28;5030028;27;98056;-66
2023/08/24 01:39:49;;;;;;;7.20;3.40;;;;;;;23.41;65.99;101474.63;5031965;27;101500;-66
2023/08/24 01:42:21;;;;;;;3.95;3.00;;;;;;;23.51;65.88;101466.69;5033005;27;102649;-65
2023/08/24 01:44:53;;;;;;;5.18;3.10;;;;;;;23.60;65.71;101469.53;5029208;27;99091;-67
2023/08/24 01:47:20;;;;;;;4.35;3.15;;;;;;;23.69;65.67;101473.34;5021015;27;97788;-67
2023/08/24 01:49:47;;;;;;;5.88;3.40;;;;;;;23.55;66.13;101476.28;5025641;27;98288;-65
2023/08/24 01:52:14;;;;;;;6.47;3.35;;;;;;;23.57;65.97;101474.28;5029434;27;99527;-66
2023/08/24 01:54:41;;;;;;;5.55;3.15;;;;;;;23.72;65.21;101473.09;5028046;27;99835;-66
2023/08/24 01:57:07;;;;;;;7.03;3.78;;;;;;;23.72;64.73;101470.38;5027039;27;97586;-66
2023/08/24 01:59:34;;;;;;;10.68;3.25;;;;;;;23.66;65.29;101470.88;5033774;27;96955;-65
2023/08/24 02:02:02;;;;;;;8.07;3.50;;;;;;;23.60;65.29;101465.97;5032308;27;98257;-66
2023/08/24 02:04:29;;;;;;;5.65;3.47;;;;;;;23.72;64.16;101456.91;5032940;27;99222;-66
2023/08/24 02:06:55;;;;;;;7.32;3.40;;;;;;;23.64;64.19;101460.19;5027687;27;96810;-66
2023/08/24 02:09:21;;;;;;;7.15;3.08;;;;;;;23.75;63.73;101456.66;5032016;27;97255;-66
2023/08/24 02:11:48;;;;;;;5.47;2.95;;;;;;;23.74;64.25;101460.34;5025453;27;99308;-66
2023/08/24 02:14:14;;;;;;;7.35;3.30;;;;;;;23.83;63.72;101459.59;5022620;27;99203;-66
2023/08/24 02:16:41;;;;;;;4.38;2.95;;;;;;;23.74;64.53;101460.34;5027287;27;96839;-65
2023/08/24 02:19:08;;;;;;;5.20;2.97;;;;;;;23.77;64.52;101468.19;5028376;27;96790;-65
2023/08/24 02:21:36;;;;;;;6.50;2.80;;;;;;;23.89;63.77;101461.84;5027375;27;101333;-65
2023/08/24 02:24:03;;;;;;;6.65;3.03;;;;;;;23.91;63.69;101461.69;5020142;27;97780;-65
2023/08/24 02:26:29;;;;;;;5.95;3.03;;;;;;;23.95;63.20;101465.88;5026642;27;96849;-67
2023/08/24 02:28:56;;;;;;;4.68;2.85;;;;;;;23.95;63.95;101464.03;5029084;27;99221;-66
2023/08/24 02:31:22;;;;;;;6.30;3.10;;;;;;;24.12;63.14;101463.53;5030880;27;98872;-66
2023/08/24 02:33:51;;;;;;;10.32;3.55;;;;;;;23.96;62.88;101463.03;5021455;27;99225;-65
2023/08/24 02:36:19;;;;;;;5.47;3.10;;;;;;;23.85;63.22;101465.75;5030118;27;97631;-67
2023/08/24 02:38:45;;;;;;;5.72;3.15;;;;;;;24.17;62.27;101471.25;5028042;27;98528;-66
2023/08/24 02:41:14;;;;;;;8.57;3.20;;;;;;;24.16;61.99;101459.56;5022350;27;99493;-66
2023/08/24 02:43:41;;;;;;;6.32;3.22;;;;;;;24.30;61.23;101452.22;5029559;27;98898;-66
2023/08/24 02:46:09;;;;;;;4.55;2.50;;;;;;;24.29;61.22;101458.59;5031807;27;96881;-66
2023/08/24 02:48:35;;;;;;;6.75;3.03;;;;;;;24.35;60.49;101450.88;5027459;27;96882;-64
2023/08/24 02:51:03;;;;;;;6.75;2.72;;;;;;;24.33;60.38;101457.41;5027160;27;99613;-65
2023/08/24 02:53:32;;;;;;;5.82;3.17;;;;;;;24.39;60.13;101456.88;5030271;27;96834;-66
2023/08/24 02:55:59;;;;;;;7.35;2.35;;;;;;;24.42;59.41;101456.63;5023093;27;100489;-65
2023/08/24 02:58:25;;;;;;;7.93;2.88;;;;;;;24.42;59.45;101451.22;5030595;27;97201;-65
2023/08/24 03:00:51;;;;;;;5.50;2.70;;;;;;;24.26;60.02;101456.19;5027599;27;99003;-65
2023/08/24 03:03:18;;;;;;;5.35;2.53;;;;;;;24.19;61.32;101453.97;5028888;27;98989;-65
2023/08/24 03:05:54;;;;;;;7.65;2.88;;;;;;;24.08;62.06;101448.56;5022506;27;96867;-65
2023/08/24 03:08:20;;;;;;;6.78;2.92;;;;;;;24.14;62.15;101453.47;5027416;27;97266;-67
2023/08/24 03:10:48;;;;;;;4.72;2.80;;;;;;;24.37;61.36;101448.91;5022728;27;98142;-66
2023/08/24 03:13:15;;;;;;;3.53;2.78;;;;;;;24.40;61.05;101454.06;5022427;27;97806;-67
2023/08/24 03:15:41;;;;;;;5.97;2.60;;;;;;;24.44;61.11;101460.06;5027555;27;96835;-66
2023/08/24 03:18:08;;;;;;;4.85;2.95;;;;;;;24.19;61.61;101453.97;5031656;27;96786;-66
2023/08/24 03:20:34;;;;;;;7.28;3.22;;;;;;;24.33;61.69;101460.09;5024100;27;98370;-66
2023/08/24 03:23:01;;;;;;;4.72;2.95;;;;;;;24.12;62.09;101455.44;5029533;27;102804;-65
2023/08/24 03:25:27;;;;;;;4.63;3.03;;;;;;;24.31;61.02;101457.50;5022092;27;97008;-65
2023/08/24 03:27:55;;;;;;;5.90;2.75;;;;;;;24.42;59.43;101456.63;5020579;27;96901;-65
2023/08/24 03:30:22;;;;;;;6.72;2.67;;;;;;;24.33;58.22;101460.09;5027701;27;99861;-65
2023/08/24 03:32:49;;;;;;;3.47;2.47;;;;;;;24.63;56.56;101461.13;5026494;27;98823;-66
2023/08/24 03:35:15;;;;;;;3.42;2.95;;;;;;;24.69;56.11;101458.88;5022876;27;96821;-65
2023/08/24 03:37:42;;;;;;;6.40;3.13;;;;;;;24.58;56.50;101452.53;5032595;27;96830;-66
2023/08/24 03:40:09;;;;;;;5.32;2.83;;;;;;;24.62;55.56;101443.19;5025270;27;98924;-66
2023/08/24 03:42:35;;;;;;;5.97;2.47;;;;;;;24.79;55.28;101439.09;5027681;27;100405;-66
2023/08/24 03:45:04;;;;;;;7.07;3.20;;;;;;;24.83;55.44;101440.53;5024228;27;97261;-67
2023/08/24 03:47:30;;;;;;;3.42;2.80;;;;;;;24.91;54.87;101438.06;5028413;27;97198;-65
2023/08/24 03:49:56;;;;;;;4.65;3.17;;;;;;;24.88;55.07;101442.84;5026721;27;98355;-65
2023/08/24 03:52:23;;;;;;;6.63;2.85;;;;;;;24.84;56.06;101439.53;5022465;27;98775;-65
2023/08/24 03:54:50;;;;;;;7.93;3.72;;;;;;;24.76;56.86;101444.72;5030007;27;98048;-67
2023/08/24 03:57:16;;;;;;;5.28;3.17;;;;;;;24.82;56.48;101428.00;5022812;27;99085;-66
2023/08/24 03:59:43;;;;;;;4.47;2.40;;;;;;;24.87;55.74;101433.03;5030473;27;97963;-65
2023/08/24 04:02:10;;;;;;;6.10;2.60;;;;;;;24.79;55.03;101439.09;5024902;27;101951;-65
2023/08/24 04:04:37;;;;;;;4.97;2.40;;;;;;;24.88;55.07;101442.84;5029346;27;96948;-66
2023/08/24 04:07:03;;;;;;;4.15;2.92;;;;;;;24.89;55.32;101434.63;5027271;27;97274;-65
2023/08/24 04:09:30;;;;;;;2.78;2.50;;;;;;;24.81;54.08;101437.09;5028069;27;102294;-65
2023/08/24 04:11:56;;;;;;;7.43;2.80;;;;;;;24.94;54.55;101443.19;5027876;27;98121;-66
2023/08/24 04:14:23;;;;;;;6.18;3.00;;;;;;;24.81;54.64;101436.25;5029927;27;97678;-66
2023/08/24 04:16:49;;;;;;;13.75;2.47;;;;;;;24.66;54.37;101437.53;5030481;27;97165;-66
2023/08/24 04:19:17;;;;;;;3.88;2.35;;;;;;;24.86;53.93;101436.72;5032062;27;98279;-66
2023/08/24 04:21:43;;;;;;;4.40;2.22;;;;;;;24.79;54.00;101438.22;5024942;27;98839;-65
2023/08/24 04:24:10;;;;;;;5.50;2.25;;;;;;;24.90;53.23;101436.34;5028873;27;98736;-65
2023/08/24 04:26:37;;;;;;;4.70;2.22;;;;;;;25.02;52.96;101434.44;5030409;27;97033;-66
2023/08/24 04:29:03;;;;;;;4.35;2.55;;;;;;;24.85;53.17;101440.41;5027153;27;99447;-64
2023/08/24 04:31:30;;;;;;;7.40;2.65;;;;;;;24.89;53.45;101439.16;5022574;27;99148;-65
2023/08/24 04:33:56;;;;;;;2.80;2.17;;;;;;;25.01;53.10;101439.00;5023663;27;97534;-65
2023/08/24 04:36:25;;;;;;;6.95;3.00;;;;;;;25.16;52.65;101434.13;5027155;27;96808;-66
2023/08/24 04:38:52;;;;;;;5.28;2.22;;;;;;;25.16;52.32;101435.97;5024669;27;99229;-66
2023/08/24 04:41:18;;;;;;;3.90;2.17;;;;;;;25.04;52.47;101439.72;5029511;27;97792;-66
2023/08/24 04:43:45;;;;;;;7.95;2.38;;;;;;;25.07;51.93;101442.19;5029455;27;97315;-65
2023/08/24 04:46:11;;;;;;;6.18;2.67;;;;;;;24.99;52.40;101441.00;5027205;27;98516;-65
2023/08/24 04:48:37;;;;;;;5.00;2.20;;;;;;;25.11;52.43;101446.34;5026855;27;101613;-66
2023/08/24 04:51:04;;;;;;;4.32;2.53;;;;;;;24.99;52.30;101445.53;5029957;27;98810;-65
2023/08/24 04:53:32;;;;;;;4.85;2.40;;;;;;;25.02;52.46;101438.00;5021336;27;97152;-66
2023/08/24 04:55:58;;;;;;;6.05;2.50;;;;;;;25.14;50.66;101437.97;5028455;27;97307;-66
2023/08/24 04:58:26;;;;;;;2.78;2.30;;;;;;;25.11;51.49;101449.03;5026203;27;98924;-65
2023/08/24 05:00:52;;;;;;;3.80;2.35;;;;;;;24.78;52.42;101458.13;5023255;27;98823;-65
2023/08/24 05:03:21;;;;;;;7.95;2.50;;;;;;;25.00;53.28;101449.97;5028220;27;99120;-65
2023/08/24 05:05:48;;;;;;;6.57;2.92;;;;;;;25.17;52.91;101456.63;5024318;27;96907;-65
2023/08/24 05:08:14;;;;;;;5.13;2.65;;;;;;;25.28;52.50;101456.56;5026342;27;99524;-67
2023/08/24 05:10:43;;;;;;;5.10;2.83;;;;;;;25.19;52.16;101455.50;5028938;27;98725;-66
2023/08/24 05:13:09;;;;;;;6.10;3.15;;;;;;;25.20;52.81;101459.06;5026966;27;96855;-66
2023/08/24 05:15:36;;;;;;;6.55;2.53;;;;;;;25.39;51.77;101448.38;5025908;27;99020;-66
2023/08/24 05:18:02;;;;;;;5.35;2.47;;;;;;;25.48;51.08;101452.97;5027307;27;98866;-68
2023/08/24 05:20:29;;;;;;;5.50;2.63;;;;;;;25.49;51.26;101443.00;5027359;27;99349;-65
2023/08/24 05:22:56;;;;;;;4.93;2.25;;;;;;;25.48;50.70;101449.41;5027327;27;96886;-64
2023/08/24 05:25:22;;;;;;;5.88;3.30;;;;;;;25.67;50.31;101439.59;5019397;27;99285;-66
2023/08/24 05:27:50;;;;;;;5.30;2.33;;;;;;;25.53;50.51;101455.31;5025829;27;97737;-66
2023/08/24 05:30:17;;;;;;;3.35;2.20;;;;;;;25.88;50.34;101457.63;5023435;27;101340;-66
2023/08/24 05:32:44;;;;;;;4.32;2.30;;;;;;;25.74;50.38;101453.44;5025718;27;96769;-66
2023/08/24 05:35:11;;;;;;;5.40;2.40;;;;;;;25.84;50.73;101458.91;5027380;27;97399;-66
2023/08/24 05:37:38;;;;;;;4.90;2.50;;;;;;;25.64;50.77;101448.00;5023379;27;99689;-65
2023/08/24 05:40:06;;;;;;;3.47;2.47;;;;;;;25.82;50.75;101447.34;5026510;27;99198;-66
2023/08/24 05:42:33;;;;;;;6.32;2.60;;;;;;;25.86;50.36;101457.78;5021845;27;98007;-66
2023/08/24 05:45:01;;;;;;;4.07;2.70;;;;;;;25.92;49.70;101459.09;5020504;27;96886;-65
2023/08/24 05:47:27;;;;;;;6.22;2.80;;;;;;;26.04;48.54;101450.75;5023451;27;98957;-67
2023/08/24 05:49:54;;;;;;;6.78;2.83;;;;;;;26.07;49.02;101452.28;5020430;27;99914;-66
2023/08/24 05:52:20;;;;;;;7.25;2.58;;;;;;;26.12;48.68;101450.88;5031364;27;96988;-66
2023/08/24 05:54:46;;;;;;;6.10;2.20;;;;;;;26.07;48.59;101449.59;5026569;27;97099;-67
2023/08/24 05:57:13;;;;;;;5.13;2.60;;;;;;;25.92;48.99;101457.25;5021403;27;98370;-65
2023/08/24 05:59:39;;;;;;;6.82;2.42;;;;;;;26.08;48.99;101454.00;5026886;27;99018;-66
2023/08/24 06:02:07;;;;;;;9.52;2.20;;;;;;;26.09;48.55;101447.59;5024703;27;98209;-66
2023/08/24 06:04:34;;;;;;;8.23;2.40;;;;;;;26.27;48.26;101451.41;5021709;27;97411;-66
2023/08/24 06:07:00;;;;;;;3.55;2.15;;;;;;;26.29;48.62;101449.41;5028942;27;99010;-66
2023/08/24 06:09:27;;;;;;;4.97;2.05;;;;;;;26.35;48.84;101448.84;5029480;27;99300;-66
2023/08/24 06:11:53;;;;;;;8.88;2.42;;;;;;;26.64;47.49;101448.91;5029573;27;97078;-66
2023/08/24 06:14:20;;;;;;;9.68;2.53;;;;;;;26.81;47.53;101447.34;5028447;27;96968;-66
2023/08/24 06:16:48;;;;;;;3.00;1.70;;;;;;;26.79;46.56;101458.31;5023399;27;102130;-66
2023/08/24 06:19:16;;;;;;;3.15;2.17;;;;;;;26.50;46.58;101450.19;5019795;27;101866;-65
2023/08/24 06:21:48;;;;;;;5.53;2.30;;;;;;;26.79;46.28;101457.47;5026584;27;97845;-66
2023/08/24 06:24:14;;;;;;;4.70;2.15;;;;;;;26.82;46.10;101457.19;5033569;27;96894;-65
2023/08/24 06:26:41;;;;;;;5.20;1.92;;;;;;;27.05;45.60;101461.34;5025496;27;97840;-66
2023/08/24 06:29:07;;;;;;;4.60;2.17;;;;;;;27.21;45.49;101453.50;5030041;27;98850;-66
2023/08/24 06:31:34;;;;;;;2.60;1.65;;;;;;;27.15;44.91;101454.06;5028359;27;96738;-65
2023/08/24 06:34:00;;;;;;;7.07;1.92;;;;;;;27.51;43.93;101455.13;5033812;27;96763;-65
2023/08/24 06:36:29;;;;;;;5.60;2.00;;;;;;;27.61;43.31;101447.00;5026255;27;100124;-66
2023/08/24 06:38:55;;;;;;;6.55;2.10;;;;;;;27.80;42.74;101446.94;5031182;27;101568;-66
2023/08/24 06:41:22;;;;;;;4.95;2.13;;;;;;;27.89;42.78;101446.06;5032048;27;97543;-66
2023/08/24 06:43:49;;;;;;;4.45;2.10;;;;;;;27.69;43.21;101445.28;5026465;27;97028;-67
2023/08/24 06:46:15;;;;;;;3.80;1.90;;;;;;;27.59;43.10;101449.00;5031033;27;97905;-65
2023/08/24 06:48:43;;;;;;;5.35;2.03;;;;;;;27.98;42.67;101453.28;5027498;27;98759;-67
2023/08/24 06:51:11;;;;;;;2.65;1.83;;;;;;;27.73;43.12;101453.97;5026927;27;96843;-68
2023/08/24 06:53:38;;;;;;;4.32;1.77;;;;;;;27.88;42.51;101463.34;5024871;27;97240;-67
2023/08/24 06:56:05;;;;;;;5.07;2.20;;;;;;;27.93;42.17;101455.63;5023457;27;101049;-65
2023/08/24 06:58:31;;;;;;;5.13;2.15;;;;;;;28.13;42.35;101461.81;5027307;27;101212;-66
2023/08/24 07:00:58;;;;;;;5.75;2.40;;;;;;;28.26;41.84;101459.63;5025229;27;96895;-67
2023/08/24 07:03:24;;;;;;;4.20;2.50;;;;;;;27.98;41.27;101464.16;5025844;27;97037;-66
2023/08/24 07:05:51;;;;;;;5.50;2.35;;;;;;;28.01;41.36;101468.44;5024509;27;101477;-66
2023/08/24 07:08:18;;;;;;;6.70;2.10;;;;;;;28.13;41.12;101465.38;5031130;27;99311;-67
2023/08/24 07:10:45;;;;;;;4.10;2.00;;;;;;;28.12;41.19;101465.53;5030951;27;97854;-65
2023/08/24 07:13:12;;;;;;;5.13;2.15;;;;;;;28.12;41.27;101471.81;5025080;27;97096;-67
2023/08/24 07:15:38;;;;;;;3.92;2.10;;;;;;;28.38;41.25;101472.00;5027421;27;99426;-65
2023/08/24 07:18:07;;;;;;;6.47;1.85;;;;;;;28.49;41.14;101473.63;5024459;27;98029;-66
2023/08/24 07:20:33;;;;;;;6.50;2.10;;;;;;;29.14;39.73;101469.75;5030879;27;96957;-66
2023/08/24 07:23:00;;;;;;;5.40;2.13;;;;;;;29.10;40.00;101467.47;5030160;27;96931;-65
2023/08/24 07:25:27;;;;;;;7.82;2.13;;;;;;;28.77;39.73;101472.63;5029061;27;99024;-66
2023/08/24 07:27:58;;;;;;;4.75;2.25;;;;;;;28.62;40.32;101465.13;5025443;27;99270;-66
2023/08/24 07:30:25;;;;;;;5.20;2.55;;;;;;;28.78;40.21;101463.47;5029547;27;97136;-65
2023/08/24 07:32:52;;;;;;;7.60;4.10;;;;;;;28.86;39.72;101468.97;5028836;27;96941;-64
2023/08/24 07:35:20;;;;;;;6.28;2.78;;;;;;;28.68;39.45;101461.81;5024161;27;100378;-66
2023/08/24 07:37:47;;;;;;;5.95;2.63;;;;;;;29.06;39.03;101460.66;5027937;27;97065;-67
2023/08/24 07:40:14;;;;;;;5.97;3.65;;;;;;;29.22;37.83;101455.31;5028523;27;96775;-66
2023/08/24 07:42:45;;;;;;;6.20;2.72;;;;;;;29.29;37.92;101448.25;5031184;27;97257;-65
2023/08/24 07:45:14;;;;;;;8.77;2.47;;;;;;;29.44;37.71;101449.41;5024081;27;97981;-66
2023/08/24 07:47:42;;;;;;;2.75;2.40;;;;;;;29.72;37.57;101463.72;5021333;27;98034;-64
2023/08/24 07:50:09;;;;;;;4.18;2.75;;;;;;;29.91;37.01;101454.47;5024054;27;97616;-64
2023/08/24 07:52:37;;;;;;;10.40;3.10;;;;;;;30.07;36.76;101455.41;5029035;27;97361;-66
2023/08/24 07:55:04;;;;;;;5.63;2.45;;;;;;;30.01;36.55;101447.88;5026062;27;97182;-67
2023/08/24 07:57:31;;;;;;;3.38;1.80;;;;;;;30.17;36.45;101454.44;5027207;27;101471;-65
2023/08/24 07:59:58;;;;;;;6.63;2.45;;;;;;;30.11;36.98;101458.69;5030372;27;96861;-65
2023/08/24 08:02:25;;;;;;;6.50;2.47;;;;;;;30.32;36.88;101441.88;5014804;27;97866;-66
2023/08/24 08:04:52;;;;;;;7.68;2.65;;;;;;;30.41;35.59;101441.72;5019432;27;99152;-66
2023/08/24 08:07:19;;;;;;;11.18;2.50;;;;;;;30.52;35.89;101450.66;5025618;27;99103;-65
2023/08/24 08:09:45;;;;;;;5.57;2.20;;;;;;;30.62;35.93;101451.34;5027249;27;97422;-65
2023/08/24 08:12:11;;;;;;;3.50;2.20;;;;;;;30.78;36.02;101456.84;5028250;27;97778;-66
2023/08/24 08:14:38;;;;;;;6.18;2.20;;;;;;;30.67;36.74;101462.59;5021680;27;98951;-66
2023/08/24 08:17:04;;;;;;;4.80;1.75;;;;;;;30.54;36.52;101456.78;5022727;27;98505;-66
2023/08/24 08:19:35;;;;;;;10.82;3.47;;;;;;;31.04;35.23;101443.06;5022239;27;98079;-66
2023/08/24 08:22:01;;;;;;;4.30;2.45;;;;;;;31.13;35.34;101439.31;5026419;27;96779;-67
2023/08/24 08:24:27;;;;;;;8.25;2.10;;;;;;;30.93;35.28;101435.19;5027393;27;97873;-65
2023/08/24 08:26:54;;;;;;;8.15;1.98;;;;;;;31.01;35.53;101432.47;5028052;27;98459;-66
2023/08/24 08:29:20;;;;;;;4.30;2.22;;;;;;;31.22;35.03;101433.69;5021728;27;97327;-67
2023/08/24 08:31:47;;;;;;;3.67;1.77;;;;;;;31.00;35.62;101434.34;5028706;27;96840;-67
2023/08/24 08:34:13;;;;;;;2.78;1.77;;;;;;;30.79;36.15;101431.25;5020586;27;99002;-67
2023/08/24 08:36:41;;;;;;;4.60;2.10;;;;;;;30.37;36.36;101426.75;5020177;27;99189;-65
2023/08/24 08:39:08;;;;;;;6.63;1.92;;;;;;;30.43;36.48;101420.63;5021745;27;96854;-66
2023/08/24 08:41:42;;;;;;;12.32;2.30;;;;;;;30.44;36.79;101414.16;5022281;27;99025;-64
2023/08/24 08:44:12;;;;;;;9.18;2.05;;;;;;;30.20;37.39;101416.78;5021898;27;98677;-65
2023/08/24 08:46:40;;;;;;;5.72;2.03;;;;;;;30.04;37.34;101409.44;5017877;27;98759;-67
2023/08/24 08:49:07;;;;;;;4.88;1.83;;;;;;;30.27;36.80;101408.78;5028564;27;96796;-65
2023/08/24 08:51:35;;;;;;;5.25;1.55;;;;;;;30.01;37.00;101415.19;5024688;27;97354;-67
2023/08/24 08:54:05;;;;;;;3.50;1.70;;;;;;;29.95;36.86;101412.28;5022212;27;97679;-67
2023/08/24 08:56:32;;;;;;;3.83;1.65;;;;;;;29.88;36.54;101403.00;5025823;27;99560;-67
2023/08/24 08:59:00;;;;;;;6.75;1.70;;;;;;;29.73;36.32;101402.78;5022404;27;97345;-67
2023/08/24 09:01:27;;;;;;;3.30;1.88;;;;;;;29.64;36.61;101410.06;5029573;27;97033;-66
2023/08/24 09:03:54;;;;;;;4.80;1.80;;;;;;;29.62;37.08;101408.50;5022805;27;99530;-66
2023/08/24 09:06:22;;;;;;;3.03;1.65;;;;;;;29.53;37.01;101410.34;5021740;27;98121;-67
2023/08/24 09:08:50;;;;;;;3.10;1.98;;;;;;;29.28;37.68;101414.72;5017232;27;96903;-68
2023/08/24 09:11:18;;;;;;;4.80;1.70;;;;;;;29.84;37.32;101405.22;5026070;27;97824;-67
2023/08/24 09:13:44;;;;;;;4.63;1.85;;;;;;;30.26;36.14;101401.66;5024074;27;102423;-68
2023/08/24 09:16:15;;;;;;;3.70;1.95;;;;;;;30.37;35.99;101404.94;5027867;27;99534;-68
2023/08/24 09:18:44;;;;;;;6.35;1.60;;;;;;;30.18;36.70;101398.91;5023911;27;97139;-67
2023/08/24 09:21:11;;;;;;;9.57;1.58;;;;;;;30.01;36.53;101396.13;5021077;27;97156;-66
2023/08/24 09:23:38;;;;;;;5.07;1.50;;;;;;;29.59;36.50;101390.63;5022015;27;100312;-67
2023/08/24 09:26:04;;;;;;;4.80;1.70;;;;;;;29.77;36.23;101392.41;5021461;27;100901;-66
2023/08/24 09:28:32;;;;;;;4.32;1.60;;;;;;;29.78;36.01;101385.97;5026991;27;96799;-67
2023/08/24 09:31:02;;;;;;;3.30;1.60;;;;;;;29.86;36.41;101380.56;5025523;27;96780;-67
2023/08/24 09:33:28;;;;;;;6.32;1.63;;;;;;;29.96;35.79;101378.56;5024982;27;99504;-67
2023/08/24 09:36:01;;;;;;;7.22;1.70;;;;;;;30.52;35.15;101374.31;5020642;27;98909;-68
2023/08/24 09:38:27;;;;;;;7.93;1.85;;;;;;;30.62;35.27;101370.38;5028090;27;96873;-67
2023/08/24 09:40:56;;;;;;;3.65;1.85;;;;;;;30.95;34.32;101364.94;5023108;27;97964;-67
2023/08/24 09:43:23;;;;;;;4.25;1.70;;;;;;;30.73;34.72;101371.91;5024306;27;99228;-67
2023/08/24 09:45:52;;;;;;;2.58;1.75;;;;;;;30.77;34.58;101365.97;5021973;27;99343;-66
2023/08/24 09:48:20;;;;;;;5.15;1.80;;;;;;;30.54;34.56;101362.19;5020476;27;97259;-67
2023/08/24 09:50:47;;;;;;;7.47;2.10;;;;;;;30.62;34.64;101358.63;5025675;27;97497;-67
2023/08/24 09:53:18;;;;;;;4.78;1.92;;;;;;;30.76;34.07;101360.69;5026198;27;99985;-66
2023/08/24 09:55:49;;;;;;;6.70;1.58;;;;;;;30.76;33.71;101361.53;5023672;27;97546;-67
2023/08/24 09:58:16;;;;;;;4.55;1.95;;;;;;;30.71;33.73;101352.16;5027997;27;97842;-67
2023/08/24 10:00:47;;;;;;;5.10;1.65;;;;;;;30.85;33.41;101351.47;5024072;27;99097;-67
2023/08/24 10:03:20;;;;;;;2.55;1.50;;;;;;;30.82;33.68;101351.81;5028357;27;99085;-67
2023/08/24 10:05:48;;;;;;;5.43;1.67;;;;;;;30.62;33.39;101347.72;5025243;27;99372;-66
2023/08/24 10:08:18;;;;;;;5.35;1.98;;;;;;;30.79;33.65;101352.13;5024328;27;97259;-66
2023/08/24 10:10:46;;;;;;;6.28;1.65;;;;;;;30.70;33.89;101345.00;5031993;27;97006;-66
2023/08/24 10:13:19;;;;;;;1.75;1.60;;;;;;;30.82;33.55;101341.75;5030460;27;98144;-67
2023/08/24 10:15:48;;;;;;;3.55;1.75;;;;;;;31.03;33.91;101334.91;5026255;27;99230;-67
2023/08/24 10:18:17;;;;;;;5.60;1.90;;;;;;;30.77;33.16;101335.97;5028289;27;97488;-67
2023/08/24 10:20:45;;;;;;;2.30;1.80;;;;;;;30.90;33.53;101343.63;5028179;27;96822;-67
2023/08/24 10:23:16;;;;;;;7.07;1.70;;;;;;;30.63;33.64;101338.50;5026103;27;98109;-68
2023/08/24 10:25:44;;;;;;;8.18;1.85;;;;;;;30.71;33.67;101336.66;5026426;27;99207;-68
2023/08/24 10:28:12;;;;;;;6.18;1.67;;;;;;;30.49;33.61;101334.59;5026795;27;98445;-68
2023/08/24 10:30:40;;;;;;;4.03;1.70;;;;;;;30.95;34.10;101335.75;5027733;27;96904;-68
2023/08/24 10:33:07;;;;;;;4.30;1.90;;;;;;;30.71;34.40;101333.94;5023540;27;99026;-67
2023/08/24 10:35:35;;;;;;;3.95;1.60;;;;;;;30.95;34.14;101334.91;5027044;27;99092;-67
2023/08/24 10:38:02;;;;;;;2.92;1.58;;;;;;;30.93;33.30;101335.06;5026037;27;96774;-68
2023/08/24 10:40:35;;;;;;;10.93;1.92;;;;;;;30.85;34.07;101335.13;5026262;27;97454;-67
2023/08/24 10:43:05;;;;;;;2.63;1.70;;;;;;;30.81;33.75;101333.72;5020747;27;101753;-67
2023/08/24 10:45:59;;;;;;;9.30;1.90;;;;;;;30.87;34.11;101341.22;5024323;27;98019;-68
2023/08/24 10:48:31;;;;;;;2.70;1.65;;;;;;;31.08;34.24;101338.00;4991156;27;97159;-68
2023/08/24 10:51:26;;;;;;;9.40;2.50;;;;;;;31.10;33.51;101334.09;5021791;27;98349;-69
2023/08/24 10:53:54;;;;;;;5.60;1.95;;;;;;;31.01;34.49;101332.34;5021852;27;97749;-68
2023/08/24 10:56:22;;;;;;;6.20;2.22;;;;;;;30.97;34.13;101325.53;5024142;27;99328;-70
2023/08/24 10:59:08;;;;;;;7.13;1.80;;;;;;;30.81;34.41;101336.47;5026151;27;97286;-67
2023/08/24 11:01:39;;;;;;;5.88;1.95;;;;;;;30.94;34.08;101323.16;5031829;27;96838;-67
2023/08/24 11:04:06;;;;;;;3.17;1.75;;;;;;;31.12;33.59;101320.22;5023836;27;98673;-68
2023/08/24 11:06:34;;;;;;;3.80;2.30;;;;;;;30.97;34.21;101314.63;5026332;27;99010;-67
2023/08/24 11:09:17;;;;;;;3.33;1.90;;;;;;;30.98;34.08;101310.88;5026551;27;97226;-68
2023/08/24 11:11:55;;;;;;;3.75;2.03;;;;;;;30.91;34.03;101307.13;5026094;27;101036;-68
2023/08/24 11:14:25;;;;;;;6.32;2.50;;;;;;;31.11;33.98;101294.84;5025180;27;99219;-67
2023/08/24 11:16:52;;;;;;;4.63;2.15;;;;;;;31.10;34.38;101290.41;5026762;27;98938;-67
2023/08/24 11:19:19;;;;;;;7.63;2.08;;;;;;;30.80;34.33;101286.50;5018334;27;98453;-68
2023/08/24 11:21:47;;;;;;;9.55;2.30;;;;;;;31.18;33.87;101282.16;5011642;27;97366;-68
2023/08/24 11:24:15;;;;;;;4.35;2.50;;;;;;;30.97;33.98;101287.34;5010581;27;100615;-68
2023/08/24 11:26:45;;;;;;;5.40;2.35;;;;;;;31.02;33.90;101282.19;5017487;27;101508;-68